createdAt,value
2022-10-23T00:01:28.403Z,101366.25
2022-10-23T00:04:11.433Z,101365.44
2022-10-23T00:06:38.229Z,101367.09
2022-10-23T00:09:06.539Z,101380.38
2022-10-23T00:11:34.400Z,101376.88
2022-10-23T00:14:03.535Z,101374.44
2022-10-23T00:16:30.725Z,101373.41
2022-10-23T00:18:57.499Z,101378.72
2022-10-23T00:21:25.090Z,101375.41
2022-10-23T00:23:52.284Z,101384.03
2022-10-23T00:26:19.362Z,101384.03
2022-10-23T00:28:49.410Z,101386.69
2022-10-23T00:31:16.367Z,101391.16
2022-10-23T00:33:43.161Z,101385.03
2022-10-23T00:36:12.011Z,101387.69
2022-10-23T00:38:38.947Z,101386.69
2022-10-23T00:41:07.516Z,101386.03
2022-10-23T00:43:36.256Z,101385.84
2022-10-23T00:46:02.846Z,101390.16
2022-10-23T00:48:29.517Z,101387.69
2022-10-23T00:50:56.373Z,101394.66
2022-10-23T00:53:23.087Z,101395.47
2022-10-23T00:55:50.857Z,101391.00
2022-10-23T00:58:19.442Z,101391.00
2022-10-23T01:00:51.645Z,101392.81
2022-10-23T01:03:19.832Z,101396.31
2022-10-23T01:05:51.798Z,101387.50
2022-10-23T01:08:42.709Z,101385.84
2022-10-23T01:11:22.694Z,101383.19
2022-10-23T01:14:05.099Z,101387.69
2022-10-23T01:17:06.847Z,101388.69
2022-10-23T01:20:01.496Z,101389.53
2022-10-23T01:22:41.566Z,101386.03
2022-10-23T01:25:27.133Z,101386.88
2022-10-23T01:28:01.437Z,101385.22
2022-10-23T01:30:28.943Z,101387.88
2022-10-23T01:33:03.722Z,101390.53
2022-10-23T01:35:38.027Z,101387.03
2022-10-23T01:38:27.933Z,101390.53
2022-10-23T01:41:04.568Z,101396.66
2022-10-23T01:43:42.598Z,101397.66
2022-10-23T01:46:12.515Z,101399.28
2022-10-23T01:48:39.243Z,101401.31
2022-10-23T01:51:08.363Z,101397.81
2022-10-23T01:53:38.535Z,101397.66
2022-10-23T01:56:10.912Z,101400.31
2022-10-23T01:58:37.948Z,101398.50
2022-10-23T02:01:06.201Z,101395.00
2022-10-23T02:03:34.023Z,101395.84
2022-10-23T02:06:00.602Z,101391.34
2022-10-23T02:08:27.611Z,101395.84
2022-10-23T02:11:06.431Z,101395.00
2022-10-23T02:13:41.348Z,101400.97
2022-10-23T02:16:10.584Z,101401.94
2022-10-23T02:19:05.026Z,101397.66
2022-10-23T02:21:54.614Z,101396.66
2022-10-23T02:24:45.665Z,101390.34
2022-10-23T02:27:16.617Z,101393.97
2022-10-23T02:29:47.359Z,101398.31
2022-10-23T02:32:14.966Z,101398.31
2022-10-23T02:34:41.597Z,101386.88
2022-10-23T02:37:08.204Z,101391.16
2022-10-23T02:39:34.874Z,101384.03
2022-10-23T02:42:12.385Z,101387.69
2022-10-23T02:44:38.890Z,101387.69
2022-10-23T02:47:20.301Z,101393.00
2022-10-23T02:50:01.971Z,101386.03
2022-10-23T02:52:36.376Z,101385.22
2022-10-23T02:55:05.660Z,101387.69
2022-10-23T02:57:35.942Z,101384.38
2022-10-23T03:00:13.038Z,101385.22
2022-10-23T03:03:13.851Z,101395.00
2022-10-23T03:05:41.825Z,101392.34
2022-10-23T03:08:09.659Z,101388.88
2022-10-23T03:10:36.415Z,101399.50
2022-10-23T03:13:03.096Z,101388.03
2022-10-23T03:15:29.644Z,101384.53
2022-10-23T03:17:56.425Z,101391.53
2022-10-23T03:20:23.063Z,101382.72
2022-10-23T03:22:49.655Z,101382.72
2022-10-23T03:25:16.346Z,101387.19
2022-10-23T03:27:42.922Z,101380.06
2022-10-23T03:30:09.993Z,101379.41
2022-10-23T03:32:36.619Z,101381.88
2022-10-23T03:35:03.979Z,101386.38
2022-10-23T03:37:30.581Z,101396.00
2022-10-23T03:39:57.182Z,101393.50
2022-10-23T03:42:23.744Z,101391.69
2022-10-23T03:44:50.280Z,101393.69
2022-10-23T03:47:16.836Z,101397.00
2022-10-23T03:49:43.468Z,101400.63
2022-10-23T03:52:10.078Z,101404.13
2022-10-23T03:54:36.691Z,101404.13
2022-10-23T03:57:03.507Z,101404.13
2022-10-23T03:59:30.482Z,101405.13
2022-10-23T04:01:57.151Z,101403.13
2022-10-23T04:04:23.971Z,101398.66
2022-10-23T04:06:50.548Z,101399.50
2022-10-23T04:09:17.410Z,101399.50
2022-10-23T04:11:43.989Z,101394.19
2022-10-23T04:14:13.282Z,101404.59
2022-10-23T04:16:40.068Z,101390.53
2022-10-23T04:19:06.902Z,101395.00
2022-10-23T04:21:33.484Z,101390.53
2022-10-23T04:24:00.063Z,101393.19
2022-10-23T04:26:26.689Z,101399.28
2022-10-23T04:28:53.217Z,101400.31
2022-10-23T04:31:19.780Z,101401.13
2022-10-23T04:33:46.332Z,101393.34
2022-10-23T04:36:12.945Z,101393.34
2022-10-23T04:38:39.510Z,101399.50
2022-10-23T04:41:06.254Z,101397.81
2022-10-23T04:43:32.838Z,101405.78
2022-10-23T04:46:00.478Z,101406.63
2022-10-23T04:48:29.131Z,101401.47
2022-10-23T04:50:59.956Z,101401.47
2022-10-23T04:53:28.317Z,101406.78
2022-10-23T04:55:56.760Z,101404.13
2022-10-23T04:58:24.288Z,101413.09
2022-10-23T05:00:51.560Z,101414.75
2022-10-23T05:03:18.872Z,101404.28
2022-10-23T05:05:45.658Z,101401.63
2022-10-23T05:08:15.561Z,101399.81
2022-10-23T05:10:44.610Z,101397.31
2022-10-23T05:13:11.235Z,101398.97
2022-10-23T05:15:37.872Z,101391.16
2022-10-23T05:18:15.344Z,101389.34
2022-10-23T05:20:42.404Z,101381.53
2022-10-23T05:23:10.433Z,101382.38
2022-10-23T05:25:37.088Z,101384.19
2022-10-23T05:28:04.065Z,101390.34
2022-10-23T05:30:33.043Z,101390.50
2022-10-23T05:33:01.215Z,101395.81
2022-10-23T05:35:28.908Z,101393.81
2022-10-23T05:37:55.678Z,101387.84
2022-10-23T05:40:22.280Z,101395.81
2022-10-23T05:42:49.004Z,101387.00
2022-10-23T05:45:16.003Z,101385.38
2022-10-23T05:47:46.185Z,101387.00
2022-10-23T05:50:13.029Z,101398.47
2022-10-23T05:52:39.673Z,101397.63
2022-10-23T05:55:06.834Z,101400.97
2022-10-23T05:57:33.986Z,101412.38
2022-10-23T06:00:00.639Z,101414.22
2022-10-23T06:02:27.311Z,101407.91
2022-10-23T06:04:53.918Z,101408.75
2022-10-23T06:07:30.105Z,101407.09
2022-10-23T06:09:59.023Z,101406.94
2022-10-23T06:12:25.643Z,101403.44
2022-10-23T06:14:52.271Z,101412.25
2022-10-23T06:17:18.866Z,101407.78
2022-10-23T06:19:46.205Z,101409.59
2022-10-23T06:22:12.871Z,101416.72
2022-10-23T06:24:39.505Z,101420.22
2022-10-23T06:27:06.105Z,101420.22
2022-10-23T06:29:32.673Z,101412.25
2022-10-23T06:31:59.246Z,101421.06
2022-10-23T06:34:25.810Z,101409.59
2022-10-23T06:36:52.401Z,101416.72
2022-10-23T06:39:21.028Z,101417.69
2022-10-23T06:41:48.142Z,101423.00
2022-10-23T06:44:14.736Z,101413.22
2022-10-23T06:46:41.372Z,101428.31
2022-10-23T06:49:07.956Z,101424.84
2022-10-23T06:51:34.525Z,101425.66
2022-10-23T06:54:01.082Z,101434.47
2022-10-23T06:56:29.501Z,101432.81
2022-10-23T06:58:56.740Z,101423.00
2022-10-23T07:01:25.006Z,101428.50
2022-10-23T07:03:51.736Z,101421.34
2022-10-23T07:06:18.378Z,101423.22
2022-10-23T07:08:44.939Z,101430.31
2022-10-23T07:11:12.345Z,101431.97
2022-10-23T07:13:39.633Z,101432.81
2022-10-23T07:16:14.390Z,101419.53
2022-10-23T07:18:41.032Z,101423.22
2022-10-23T07:21:07.949Z,101424.84
2022-10-23T07:23:34.997Z,101415.03
2022-10-23T07:26:27.945Z,101421.34
2022-10-23T07:28:57.469Z,101420.34
2022-10-23T07:31:28.317Z,101412.38
2022-10-23T07:33:55.353Z,101416.72
2022-10-23T07:36:21.909Z,101412.25
2022-10-23T07:38:48.485Z,101419.22
2022-10-23T07:41:15.863Z,101414.91
2022-10-23T07:43:42.436Z,101406.94
2022-10-23T07:46:09.984Z,101400.63
2022-10-23T07:48:37.884Z,101406.78
2022-10-23T07:51:11.438Z,101409.44
2022-10-23T07:53:38.633Z,101405.78
2022-10-23T07:56:16.004Z,101404.97
2022-10-23T07:58:42.676Z,101408.44
2022-10-23T08:01:20.740Z,101408.44
2022-10-23T08:03:47.538Z,101410.28
2022-10-23T08:06:14.513Z,101411.94
2022-10-23T08:08:41.182Z,101415.44
2022-10-23T08:11:07.974Z,101419.88
2022-10-23T08:13:34.647Z,101426.03
2022-10-23T08:16:02.295Z,101427.69
2022-10-23T08:18:28.929Z,101427.69
2022-10-23T08:21:01.365Z,101432.16
2022-10-23T08:23:28.205Z,101435.50
2022-10-23T08:26:02.198Z,101420.53
2022-10-23T08:28:29.394Z,101426.53
2022-10-23T08:30:56.146Z,101422.03
2022-10-23T08:33:23.024Z,101430.66
2022-10-23T08:35:50.732Z,101414.72
2022-10-23T08:38:17.539Z,101413.88
2022-10-23T08:40:45.965Z,101413.06
2022-10-23T08:43:12.720Z,101414.72
2022-10-23T08:45:48.332Z,101417.22
2022-10-23T08:48:30.959Z,101410.25
2022-10-23T08:51:16.684Z,101404.94
2022-10-23T08:53:56.485Z,101399.63
2022-10-23T08:56:28.831Z,101394.66
2022-10-23T08:59:05.441Z,101396.16
2022-10-23T09:01:44.294Z,101401.28
2022-10-23T09:04:14.647Z,101403.28
2022-10-23T09:06:45.571Z,101396.97
2022-10-23T09:09:40.257Z,101404.75
2022-10-23T09:12:16.744Z,101408.41
2022-10-23T09:15:03.250Z,101404.75
2022-10-23T09:17:32.303Z,101403.94
2022-10-23T09:20:07.766Z,101402.09
2022-10-23T09:22:34.383Z,101398.47
2022-10-23T09:25:00.973Z,101389.66
2022-10-23T09:27:27.571Z,101393.16
2022-10-23T09:29:55.692Z,101389.66
2022-10-23T09:32:37.139Z,101393.16
2022-10-23T09:35:04.721Z,101388.66
2022-10-23T09:37:34.457Z,101389.50
2022-10-23T09:40:03.878Z,101396.63
2022-10-23T09:42:30.677Z,101393.97
2022-10-23T09:44:57.553Z,101393.97
2022-10-23T09:47:25.875Z,101393.16
2022-10-23T09:49:54.972Z,101386.00
2022-10-23T09:52:25.279Z,101390.50
2022-10-23T09:54:55.760Z,101382.53
2022-10-23T09:57:40.602Z,101383.34
2022-10-23T10:00:16.586Z,101382.34
2022-10-23T10:02:54.642Z,101388.31
2022-10-23T10:05:30.283Z,101374.19
2022-10-23T10:08:22.002Z,101366.25
2022-10-23T10:10:55.216Z,101359.75
2022-10-23T10:13:30.812Z,101368.56
2022-10-23T10:16:04.973Z,101356.94
2022-10-23T10:18:43.778Z,101361.44
2022-10-23T10:21:26.032Z,101363.88
2022-10-23T10:24:18.618Z,101365.72
2022-10-23T10:26:51.504Z,101360.41
2022-10-23T10:29:43.221Z,101352.47
2022-10-23T10:32:34.109Z,101355.91
2022-10-23T10:35:19.507Z,101357.91
2022-10-23T10:38:31.134Z,101352.19
2022-10-23T10:41:24.123Z,101350.34
2022-10-23T10:44:09.398Z,101346.63
2022-10-23T10:46:44.638Z,101345.56
2022-10-23T10:49:27.257Z,101344.03
2022-10-23T10:52:01.350Z,101340.22
2022-10-23T10:54:46.233Z,101343.31
2022-10-23T10:57:34.947Z,101344.81
2022-10-23T11:00:06.557Z,101343.44
2022-10-23T11:02:42.633Z,101333.66
2022-10-23T11:05:22.953Z,101333.66
2022-10-23T11:08:07.786Z,101333.16
2022-10-23T11:10:35.837Z,101323.06
2022-10-23T11:13:02.703Z,101317.28
2022-10-23T11:15:35.799Z,101315.31
2022-10-23T11:18:11.679Z,101307.06
2022-10-23T11:20:55.845Z,101300.44
2022-10-23T11:23:50.993Z,101288.50
2022-10-23T11:26:35.680Z,101299.13
2022-10-23T11:29:23.986Z,101291.34
2022-10-23T11:32:11.751Z,101286.22
2022-10-23T11:35:09.272Z,101282.75
2022-10-23T11:37:35.858Z,101281.09
2022-10-23T11:40:08.491Z,101270.47
2022-10-23T11:42:41.118Z,101268.78
2022-10-23T11:45:36.992Z,101266.34
2022-10-23T11:48:18.468Z,101254.88
2022-10-23T11:50:45.367Z,101262.00
2022-10-23T11:53:30.725Z,101254.03
2022-10-23T11:56:11.432Z,101245.44
2022-10-23T11:58:47.101Z,101240.09
2022-10-23T12:01:24.302Z,101247.06
2022-10-23T12:04:02.736Z,101238.47
2022-10-23T12:07:00.030Z,101240.09
2022-10-23T12:09:45.437Z,101240.09
2022-10-23T12:12:12.000Z,101235.63
2022-10-23T12:14:41.613Z,101240.94
2022-10-23T12:17:23.177Z,101234.78
2022-10-23T12:20:12.885Z,101232.13
2022-10-23T12:22:42.300Z,101231.31
2022-10-23T12:25:08.787Z,101233.97
2022-10-23T12:27:46.474Z,101221.50
2022-10-23T12:30:19.215Z,101217.22
2022-10-23T12:33:27.018Z,101218.84
2022-10-23T12:36:15.322Z,101211.91
2022-10-23T12:38:46.540Z,101204.09
2022-10-23T12:41:15.701Z,101204.91
2022-10-23T12:43:44.643Z,101196.13
2022-10-23T12:46:20.402Z,101199.59
2022-10-23T12:48:52.501Z,101193.47
2022-10-23T12:51:35.330Z,101196.31
2022-10-23T12:54:02.943Z,101202.25
2022-10-23T12:56:35.454Z,101186.31
2022-10-23T12:59:02.574Z,101185.50
2022-10-23T13:01:34.182Z,101180.38
2022-10-23T13:04:22.361Z,101175.06
2022-10-23T13:06:49.586Z,101164.44
2022-10-23T13:09:31.773Z,101168.91
2022-10-23T13:11:58.808Z,101166.09
2022-10-23T13:14:32.002Z,101155.63
2022-10-23T13:17:00.236Z,101154.66
2022-10-23T13:19:27.596Z,101152.78
2022-10-23T13:21:54.314Z,101157.94
2022-10-23T13:24:22.121Z,101145.94
2022-10-23T13:26:49.140Z,101140.75
2022-10-23T13:29:27.685Z,101144.69
2022-10-23T13:31:54.432Z,101141.19
2022-10-23T13:34:27.060Z,101134.25
2022-10-23T13:37:21.986Z,101135.09
2022-10-23T13:40:03.096Z,101131.59
2022-10-23T13:42:29.934Z,101134.59
2022-10-23T13:44:56.786Z,101132.78
2022-10-23T13:47:23.376Z,101147.88
2022-10-23T13:49:49.998Z,101132.16
2022-10-23T13:52:20.164Z,101129.50
2022-10-23T13:54:46.835Z,101134.13
2022-10-23T13:57:15.174Z,101128.81
2022-10-23T13:59:42.420Z,101129.84
2022-10-23T14:02:22.799Z,101124.53
2022-10-23T14:04:50.499Z,101140.47
2022-10-23T14:07:17.818Z,101141.28
2022-10-23T14:09:44.688Z,101138.81
2022-10-23T14:12:12.602Z,101133.50
2022-10-23T14:14:39.384Z,101134.47
2022-10-23T14:17:05.990Z,101129.16
2022-10-23T14:19:34.028Z,101125.72
2022-10-23T14:22:00.671Z,101116.91
2022-10-23T14:24:27.243Z,101116.09
2022-10-23T14:26:53.891Z,101118.56
2022-10-23T14:29:24.137Z,101118.75
2022-10-23T14:31:52.399Z,101109.94
2022-10-23T14:34:19.035Z,101108.94
2022-10-23T14:36:56.673Z,101102.81
2022-10-23T14:39:30.690Z,101101.81
2022-10-23T14:41:57.299Z,101098.31
2022-10-23T14:44:24.048Z,101095.66
2022-10-23T14:46:50.765Z,101088.03
2022-10-23T14:49:17.400Z,101091.53
2022-10-23T14:51:44.011Z,101091.53
2022-10-23T14:54:10.619Z,101084.41
2022-10-23T14:56:39.398Z,101079.09
2022-10-23T14:59:06.561Z,101090.69
2022-10-23T15:01:42.265Z,101078.25
2022-10-23T15:04:11.961Z,101077.41
2022-10-23T15:06:38.579Z,101077.41
2022-10-23T15:09:05.194Z,101076.59
2022-10-23T15:11:32.856Z,101071.47
2022-10-23T15:14:00.262Z,101065.16
2022-10-23T15:16:27.148Z,101067.81
2022-10-23T15:18:53.734Z,101063.50
2022-10-23T15:21:21.784Z,101048.56
2022-10-23T15:23:49.115Z,101060.84
2022-10-23T15:26:21.415Z,101051.22
2022-10-23T15:28:53.084Z,101049.59
2022-10-23T15:31:41.566Z,101044.28
2022-10-23T15:34:10.721Z,101046.94
2022-10-23T15:36:37.605Z,101043.44
2022-10-23T15:39:07.983Z,101038.97
2022-10-23T15:41:36.080Z,101031.97
2022-10-23T15:44:03.685Z,101030.16
2022-10-23T15:46:30.441Z,101024.84
2022-10-23T15:48:57.017Z,101030.16
2022-10-23T15:51:23.716Z,101031.63
2022-10-23T15:53:50.306Z,101029.97
2022-10-23T15:56:16.901Z,101024.66
2022-10-23T15:58:43.570Z,101024.66
2022-10-23T16:01:10.306Z,101018.53
2022-10-23T16:03:38.066Z,101019.19
2022-10-23T16:06:09.660Z,101021.84
2022-10-23T16:08:37.045Z,101024.50
2022-10-23T16:11:04.288Z,101026.31
2022-10-23T16:13:31.022Z,101026.31
2022-10-23T16:15:57.582Z,101014.84
2022-10-23T16:18:24.175Z,101016.69
2022-10-23T16:20:51.028Z,101021.00
2022-10-23T16:23:17.678Z,101019.38
2022-10-23T16:25:45.645Z,101015.69
2022-10-23T16:28:12.237Z,101015.88
2022-10-23T16:30:42.743Z,101010.56
2022-10-23T16:33:09.946Z,101011.38
2022-10-23T16:35:36.993Z,101009.53
2022-10-23T16:38:04.080Z,101008.75
2022-10-23T16:40:32.026Z,101006.09
2022-10-23T16:42:58.854Z,101010.38
2022-10-23T16:45:25.452Z,101013.22
2022-10-23T16:47:52.093Z,101010.56
2022-10-23T16:50:18.854Z,101011.38
2022-10-23T16:52:45.743Z,101001.78
2022-10-23T16:55:12.597Z,100994.63
2022-10-23T16:57:39.154Z,100981.34
2022-10-23T17:00:06.648Z,100981.34
2022-10-23T17:02:33.380Z,100986.66
2022-10-23T17:05:00.188Z,100977.03
2022-10-23T17:07:26.808Z,100984.19
2022-10-23T17:09:53.431Z,100987.50
2022-10-23T17:12:20.076Z,100981.34
2022-10-23T17:14:46.663Z,100973.38
2022-10-23T17:17:13.669Z,100970.72
2022-10-23T17:19:46.043Z,100972.56
2022-10-23T17:22:13.631Z,100976.03
2022-10-23T17:24:41.335Z,100968.25
2022-10-23T17:27:08.035Z,100968.06
2022-10-23T17:29:34.730Z,100968.06
2022-10-23T17:32:01.602Z,100965.41
2022-10-23T17:34:28.222Z,100958.28
2022-10-23T17:36:55.431Z,100951.31
2022-10-23T17:39:25.980Z,100938.84
2022-10-23T17:41:52.706Z,100941.31
2022-10-23T17:44:19.623Z,100925.56
2022-10-23T17:46:46.262Z,100927.19
2022-10-23T17:49:12.863Z,100923.75
2022-10-23T17:51:40.288Z,100920.06
2022-10-23T17:54:08.740Z,100914.94
2022-10-23T17:56:37.659Z,100905.16
2022-10-23T17:59:13.925Z,100893.50
2022-10-23T18:01:43.645Z,100901.47
2022-10-23T18:04:10.502Z,100903.31
2022-10-23T18:06:44.736Z,100907.63
2022-10-23T18:09:11.442Z,100895.34
2022-10-23T18:11:46.916Z,100883.91
2022-10-23T18:14:15.737Z,100890.03
2022-10-23T18:16:42.369Z,100906.78
2022-10-23T18:19:09.108Z,100910.28
2022-10-23T18:21:36.436Z,100906.78
2022-10-23T18:24:03.591Z,100904.13
2022-10-23T18:26:32.203Z,100911.09
2022-10-23T18:28:59.638Z,100904.97
2022-10-23T18:31:27.709Z,100899.66
2022-10-23T18:33:58.762Z,100899.66
2022-10-23T18:36:28.432Z,100892.50
2022-10-23T18:41:27.080Z,100884.53
2022-10-23T18:43:54.053Z,100879.22
2022-10-23T18:46:20.974Z,100891.69
2022-10-23T18:48:48.301Z,100895.16
2022-10-23T18:51:16.099Z,100888.03
2022-10-23T18:53:45.808Z,100881.88
2022-10-23T18:56:13.970Z,100870.22
2022-10-23T18:58:40.582Z,100872.88
2022-10-23T19:01:07.296Z,100870.22
2022-10-23T19:03:34.080Z,100887.00
2022-10-23T19:06:00.717Z,100893.16
2022-10-23T19:08:27.293Z,100881.69
2022-10-23T19:10:54.546Z,100878.03
2022-10-23T19:13:21.853Z,100871.06
2022-10-23T19:15:48.446Z,100867.41
2022-10-23T19:18:15.049Z,100858.63
2022-10-23T19:20:42.042Z,100863.94
2022-10-23T19:23:11.671Z,100858.63
2022-10-23T19:25:40.556Z,100862.91
2022-10-23T19:28:07.178Z,100862.91
2022-10-23T19:30:34.762Z,100855.97
2022-10-23T19:33:01.410Z,100849.63
2022-10-23T19:35:28.328Z,100846.31
2022-10-23T19:37:55.004Z,100834.72
2022-10-23T19:40:24.151Z,100835.53
2022-10-23T19:42:50.919Z,100834.72
2022-10-23T19:45:17.730Z,100824.09
2022-10-23T19:47:46.239Z,100823.25
2022-10-23T19:50:13.215Z,100811.78
2022-10-23T19:52:39.934Z,100803.03
2022-10-23T19:55:07.803Z,100797.72
2022-10-23T19:57:34.817Z,100811.00
2022-10-23T20:00:01.981Z,100809.13
2022-10-23T20:02:28.947Z,100811.78
2022-10-23T20:04:55.717Z,100817.09
2022-10-23T20:07:22.452Z,100811.00
2022-10-23T20:09:49.105Z,100823.25
2022-10-23T20:12:15.823Z,100823.44
2022-10-23T20:14:42.547Z,100839.19
2022-10-23T20:17:09.129Z,100830.38
2022-10-23T20:19:35.729Z,100824.28
2022-10-23T20:22:02.380Z,100816.31
2022-10-23T20:24:28.967Z,100810.34
2022-10-23T20:26:55.989Z,100818.97
2022-10-23T20:29:23.746Z,100821.63
2022-10-23T20:31:51.025Z,100811.78
2022-10-23T20:34:19.021Z,100812.81
2022-10-23T20:36:48.304Z,100812.81
2022-10-23T20:39:18.748Z,100805.69
2022-10-23T20:41:45.458Z,100807.31
2022-10-23T20:44:14.751Z,100813.66
2022-10-23T20:46:41.498Z,100807.50
2022-10-23T20:49:08.278Z,100809.13
2022-10-23T20:51:36.169Z,100806.47
2022-10-23T20:54:03.549Z,100797.53
2022-10-23T20:56:32.537Z,100797.53
2022-10-23T20:59:00.933Z,100793.84
2022-10-23T21:01:28.522Z,100793.84
2022-10-23T21:03:57.242Z,100792.84
2022-10-23T21:06:25.518Z,100784.06
2022-10-23T21:09:00.023Z,100789.38
2022-10-23T21:11:26.925Z,100785.72
2022-10-23T21:13:56.860Z,100790.19
2022-10-23T21:16:28.419Z,100792.84
2022-10-23T21:18:58.290Z,100784.06
2022-10-23T21:21:26.278Z,100785.72
2022-10-23T21:23:54.631Z,100780.41
2022-10-23T21:26:22.748Z,100789.16
2022-10-23T21:28:56.082Z,100789.16
2022-10-23T21:31:33.839Z,100793.69
2022-10-23T21:34:00.452Z,100797.97
2022-10-23T21:36:29.055Z,100801.47
2022-10-23T21:38:58.705Z,100805.31
2022-10-23T21:41:28.453Z,100825.56
2022-10-23T21:43:56.678Z,100827.19
2022-10-23T21:46:24.571Z,100836.97
2022-10-23T21:48:51.235Z,100839.63
2022-10-23T21:51:35.671Z,100840.47
2022-10-23T21:54:02.348Z,100838.81
2022-10-23T21:56:32.609Z,100852.91
2022-10-23T21:59:00.780Z,100861.91
2022-10-23T22:01:28.024Z,100860.88
2022-10-23T22:03:55.060Z,100853.94
2022-10-23T22:06:24.610Z,100840.66
2022-10-23T22:08:52.669Z,100850.25
2022-10-23T22:11:20.057Z,100848.63
2022-10-23T22:13:46.754Z,100849.47
2022-10-23T22:16:14.657Z,100837.19
2022-10-23T22:18:41.902Z,100839.84
2022-10-23T22:21:11.391Z,100838.00
2022-10-23T22:23:38.315Z,100844.94
2022-10-23T22:26:07.345Z,100851.28
2022-10-23T22:28:33.998Z,100847.59
2022-10-23T22:31:03.549Z,100854.75
2022-10-23T22:33:31.410Z,100854.59
2022-10-23T22:36:02.729Z,100853.75
2022-10-23T22:38:31.078Z,100858.03
2022-10-23T22:41:00.662Z,100850.25
2022-10-23T22:43:27.347Z,100851.94
2022-10-23T22:45:53.918Z,100852.91
2022-10-23T22:48:20.703Z,100846.63
2022-10-23T22:50:47.287Z,100851.94
2022-10-23T22:53:13.901Z,100850.25
2022-10-23T22:55:43.515Z,100855.56
2022-10-23T22:58:10.078Z,100866.84
2022-10-23T23:00:42.731Z,100867.88
2022-10-23T23:03:10.348Z,100871.31
2022-10-23T23:05:45.103Z,100868.84
2022-10-23T23:08:12.474Z,100867.88
2022-10-23T23:10:39.531Z,100866.19
2022-10-23T23:13:06.117Z,100857.25
2022-10-23T23:15:32.879Z,100865.22
2022-10-23T23:17:59.430Z,100860.88
2022-10-23T23:20:26.173Z,100855.56
2022-10-23T23:22:52.766Z,100843.31
2022-10-23T23:25:19.343Z,100838.00
2022-10-23T23:27:46.891Z,100834.53
2022-10-23T23:30:13.605Z,100829.84
2022-10-23T23:32:40.203Z,100828.03
2022-10-23T23:35:06.959Z,100837.19
2022-10-23T23:37:33.548Z,100829.22
2022-10-23T23:40:00.285Z,100825.56
2022-10-23T23:42:26.843Z,100823.69
2022-10-23T23:45:02.531Z,100820.25
2022-10-23T23:47:36.747Z,100819.41
2022-10-23T23:50:06.062Z,100803.28
2022-10-23T23:52:32.679Z,100780.56
2022-10-23T23:55:00.120Z,100779.38
2022-10-23T23:57:27.810Z,100792.66
2022-10-23T23:59:54.369Z,100786.31
